ΕΜΥ, Εθνική Μετεωρολογική Υπηρεσία - Δελτία Καιρού, Προγνώσεις

ΑΕΡΟΝΑΥΤΙΛΙΑ

GREEK AIRPORTS CODES

LGTP 141700Z AUTO VRB03KT //// // ////// 10/08 Q1017 RE//=

EUROPEAN AIRPORTS CODES

LFPO 141700Z 08006KT 050V120 9999 BKN032 01/M06 Q1023 NOSIG=